Time;durP1;ratioP1;P1;durP2;ratioP2;P2;SDS_P1;SDS_P2;PMS_P1;PMS_P2;Temp;Humidity;BMP_temperature;BMP_pressure;BME280_temperature;BME280_humidity;BME280_pressure;Samples;Min_cycle;Max_cycle;Signal;HPM_P1;HPM_P2
2021/12/10 00:00:19;;;;;;;45.33;28.37;;;-2.00;99.90;-3.20;99268;;;;572948;248;24159;-78
2021/12/10 00:02:47;;;;;;;42.33;27.53;;;-2.00;99.90;-3.30;99261;;;;563494;250;24125;-78
2021/12/10 00:05:16;;;;;;;47.30;28.70;;;-2.00;99.90;-3.30;99255;;;;564438;250;24115;-78
2021/12/10 00:07:44;;;;;;;46.93;28.77;;;-2.10;99.90;-3.30;99257;;;;563545;249;24159;-79
2021/12/10 00:10:11;;;;;;;42.73;26.97;;;-2.00;99.90;-3.30;99253;;;;574806;246;24114;-78
2021/12/10 00:12:40;;;;;;;44.73;29.20;;;-2.00;99.90;-3.20;99250;;;;567523;249;24093;-78
2021/12/10 00:15:07;;;;;;;43.10;27.10;;;-2.00;99.90;-3.20;99253;;;;564211;249;24131;-79
2021/12/10 00:17:35;;;;;;;44.70;26.57;;;-2.00;99.90;-3.30;99248;;;;575175;246;24094;-78
2021/12/10 00:20:07;;;;;;;40.83;26.70;;;-2.00;99.90;-3.30;99237;;;;564444;250;24139;-77
2021/12/10 00:22:42;;;;;;;37.80;25.93;;;-2.00;99.90;-3.30;99231;;;;572190;251;24114;-77
2021/12/10 00:25:05;;;;;;;37.43;20.70;;;-2.00;99.90;-3.30;99218;;;;563877;250;38227;-77
2021/12/10 00:27:33;;;;;;;43.92;25.58;;;-2.10;99.90;-3.20;99213;;;;574293;247;35464;-78
2021/12/10 00:30:07;;;;;;;42.00;24.07;;;-2.00;99.90;-3.20;99223;;;;564189;250;24128;-78
2021/12/10 00:32:35;;;;;;;42.80;26.20;;;-2.00;99.90;-3.20;99209;;;;567335;249;24177;-76
2021/12/10 00:35:03;;;;;;;29.53;15.63;;;-2.00;99.90;-3.20;99217;;;;563867;249;24085;-78
2021/12/10 00:37:29;;;;;;;29.03;14.23;;;-1.90;99.90;-3.20;99217;;;;569180;249;24158;-78
2021/12/10 00:39:57;;;;;;;37.40;22.43;;;-1.90;99.90;-3.20;99218;;;;574809;246;24078;-78
2021/12/10 00:42:24;;;;;;;38.83;25.67;;;-1.90;99.90;-3.30;99216;;;;567283;249;24126;-77
2021/12/10 00:44:52;;;;;;;40.77;24.47;;;-2.00;99.90;-3.20;99220;;;;563875;249;24127;-75
2021/12/10 00:47:20;;;;;;;42.73;27.27;;;-2.00;99.90;-3.30;99217;;;;583809;246;24135;-75
2021/12/10 00:49:51;;;;;;;45.00;27.77;;;-2.00;99.90;-3.30;99204;;;;564097;250;24136;-76
2021/12/10 00:52:16;;;;;;;44.10;26.40;;;-2.00;99.90;-3.30;99215;;;;575251;249;24163;-75
2021/12/10 00:54:44;;;;;;;39.97;27.13;;;-2.00;99.90;-3.20;99209;;;;574378;245;24073;-76
2021/12/10 00:57:12;;;;;;;37.55;21.50;;;-2.00;99.90;-3.30;99208;;;;569544;246;35277;-77
2021/12/10 00:59:40;;;;;;;27.30;13.53;;;-2.00;99.90;-3.30;99211;;;;562609;250;24216;-77
2021/12/10 01:02:08;;;;;;;30.93;15.73;;;-2.00;99.90;-3.30;99216;;;;578940;244;24187;-77
2021/12/10 01:04:37;;;;;;;29.63;12.37;;;-2.00;99.90;-3.20;99213;;;;568219;249;24096;-78
2021/12/10 01:07:04;;;;;;;38.97;23.77;;;-2.00;99.90;-3.20;99203;;;;564525;249;25137;-76
2021/12/10 01:09:32;;;;;;;36.67;23.27;;;-2.00;99.90;-3.30;99206;;;;575163;245;24119;-76
2021/12/10 01:12:09;;;;;;;42.33;27.10;;;-2.00;99.90;-3.30;99210;;;;567481;249;24094;-77
2021/12/10 01:25:53;;;;;;;39.47;23.83;;;-2.10;99.90;-3.30;99177;;;;580093;243;24055;-75
2021/12/10 01:28:09;;;;;;;37.10;23.13;;;-2.10;99.90;-3.30;99182;;;;581173;243;24050;-76
2021/12/10 01:30:37;;;;;;;38.93;24.73;;;-2.10;99.90;-3.30;99174;;;;585567;243;24121;-77
2021/12/10 01:33:05;;;;;;;41.23;25.17;;;-2.00;99.90;-3.30;99176;;;;579871;243;24095;-76
2021/12/10 01:35:37;;;;;;;36.78;20.83;;;-2.00;99.90;-3.30;99171;;;;576796;242;35085;-75
2021/12/10 01:38:05;;;;;;;24.60;13.00;;;-2.00;99.90;-3.30;99174;;;;579712;243;24076;-75
2021/12/10 01:40:31;;;;;;;25.60;12.80;;;-2.00;99.90;-3.30;99170;;;;581452;243;24093;-75
2021/12/10 01:43:05;;;;;;;33.00;18.13;;;-2.00;99.90;-3.20;99161;;;;581924;243;24066;-75
2021/12/10 01:45:27;;;;;;;40.00;23.30;;;-2.00;99.90;-3.20;99168;;;;573662;246;24159;-75
2021/12/10 01:47:55;;;;;;;41.67;24.83;;;-2.00;99.90;-3.20;99164;;;;572121;244;24133;-75
2021/12/10 01:50:23;;;;;;;42.60;25.23;;;-2.00;99.90;-3.20;99163;;;;572324;247;24115;-76
2021/12/10 01:52:51;;;;;;;39.77;23.03;;;-2.00;99.90;-3.20;99150;;;;575601;244;24069;-76
2021/12/10 01:55:20;;;;;;;40.00;23.10;;;-2.00;99.90;-3.20;99144;;;;572783;241;24100;-75
2021/12/10 01:57:49;;;;;;;39.13;22.57;;;-2.00;99.90;-3.20;99144;;;;592229;242;24100;-76
2021/12/10 02:00:18;;;;;;;41.80;22.30;;;-2.00;99.90;-3.20;99129;;;;582818;242;25133;-77
2021/12/10 02:02:42;;;;;;;38.30;22.00;;;-2.00;99.90;-3.20;99133;;;;572603;246;24090;-75
2021/12/10 02:05:10;;;;;;;36.35;16.15;;;-2.00;99.90;-3.20;99125;;;;565126;246;46126;-75
2021/12/10 02:07:38;;;;;;;10.80;6.97;;;-2.00;99.90;-3.20;99121;;;;575226;246;24115;-75
2021/12/10 02:10:06;;;;;;;11.90;6.13;;;-1.90;99.90;-3.20;99128;;;;575971;246;24118;-75
2021/12/10 02:12:34;;;;;;;13.67;8.20;;;-1.90;99.90;-3.20;99119;;;;584024;246;24150;-75
2021/12/10 02:15:04;;;;;;;29.40;15.77;;;-1.90;99.90;-3.20;99117;;;;576230;244;24045;-75
2021/12/10 02:17:36;;;;;;;33.93;18.80;;;-1.90;99.90;-3.10;99117;;;;571215;245;25114;-75
2021/12/10 02:20:11;;;;;;;34.73;19.83;;;-1.90;99.90;-3.10;99102;;;;575894;245;24113;-75
2021/12/10 02:22:40;;;;;;;36.87;20.13;;;-1.90;99.90;-3.10;99103;;;;575007;245;24163;-75
2021/12/10 02:25:08;;;;;;;33.63;18.10;;;-1.80;99.90;-3.10;99099;;;;575732;245;24175;-75
2021/12/10 02:27:36;;;;;;;32.73;17.17;;;-1.90;99.90;-3.10;99105;;;;570602;245;24096;-75
2021/12/10 02:30:07;;;;;;;35.17;17.50;;;-1.80;99.90;-3.00;99092;;;;575734;245;25106;-76
2021/12/10 02:32:39;;;;;;;29.70;17.70;;;-1.80;99.90;-3.00;99091;;;;575478;246;24117;-75
2021/12/10 02:35:04;;;;;;;27.50;16.23;;;-1.80;99.90;-3.00;99099;;;;576056;246;24143;-75
2021/12/10 02:37:33;;;;;;;31.40;17.40;;;-1.80;99.90;-3.00;99100;;;;570384;246;24106;-75
2021/12/10 02:40:01;;;;;;;30.33;15.87;;;-1.80;99.90;-3.00;99094;;;;575773;246;24080;-74
2021/12/10 02:42:32;;;;;;;30.07;15.57;;;-1.80;99.90;-3.00;99098;;;;570440;246;24079;-74
2021/12/10 02:44:57;;;;;;;30.33;15.20;;;-1.70;99.90;-2.90;99084;;;;583848;245;24100;-74
2021/12/10 02:47:25;;;;;;;35.60;18.40;;;-1.70;99.90;-2.90;99089;;;;575464;246;24423;-75
2021/12/10 02:49:53;;;;;;;29.07;16.13;;;-1.70;99.90;-2.90;99079;;;;575327;246;24156;-75
2021/12/10 02:52:23;;;;;;;30.87;14.40;;;-1.70;99.90;-2.90;99087;;;;577809;246;24102;-74
2021/12/10 02:54:48;;;;;;;31.90;14.63;;;-1.70;99.90;-2.90;99070;;;;572537;247;24101;-75
2021/12/10 02:57:16;;;;;;;29.30;14.90;;;-1.60;99.90;-2.80;99070;;;;581585;247;24151;-75
2021/12/10 02:59:44;;;;;;;18.12;9.82;;;-1.60;99.90;-2.80;99072;;;;570372;246;35154;-75
2021/12/10 03:02:13;;;;;;;13.10;6.60;;;-1.60;99.90;-2.80;99058;;;;575493;246;24081;-75
2021/12/10 03:04:40;;;;;;;6.10;4.43;;;-1.60;99.90;-2.80;99063;;;;570970;246;24070;-74
2021/12/10 03:07:11;;;;;;;4.70;2.97;;;-1.60;99.90;-2.80;99054;;;;570646;246;24075;-74
2021/12/10 03:09:37;;;;;;;6.47;3.73;;;-1.50;99.90;-2.80;99057;;;;570928;246;24078;-75
2021/12/10 03:12:08;;;;;;;6.80;4.50;;;-1.50;99.90;-2.80;99055;;;;575088;246;24140;-76
2021/12/10 03:14:33;;;;;;;14.53;4.67;;;-1.50;99.90;-2.80;99054;;;;583402;245;24048;-75
2021/12/10 03:17:01;;;;;;;16.87;8.93;;;-1.50;99.90;-2.80;99050;;;;570709;246;24118;-75
2021/12/10 03:19:28;;;;;;;24.93;12.87;;;-1.50;99.90;-2.80;99043;;;;583947;246;24326;-75
2021/12/10 03:21:56;;;;;;;20.20;11.93;;;-1.50;99.90;-2.80;99033;;;;575275;246;24082;-76
2021/12/10 03:24:24;;;;;;;23.27;11.70;;;-1.50;99.90;-2.80;99033;;;;584006;245;24092;-75
2021/12/10 03:26:52;;;;;;;26.40;13.43;;;-1.50;99.90;-2.80;99027;;;;571188;245;24122;-75
2021/12/10 03:29:20;;;;;;;21.93;13.30;;;-1.50;99.90;-2.80;99034;;;;576254;245;24118;-75
2021/12/10 03:31:48;;;;;;;26.17;13.47;;;-1.60;99.90;-2.80;99022;;;;584740;245;24120;-75
2021/12/10 03:34:16;;;;;;;21.10;11.80;;;-1.50;99.90;-2.80;99025;;;;578355;245;24064;-74
2021/12/10 03:36:46;;;;;;;33.43;14.60;;;-1.50;99.90;-2.80;99017;;;;576364;245;24055;-75
2021/12/10 03:39:12;;;;;;;21.13;11.67;;;-1.50;99.90;-2.80;99007;;;;577866;244;24068;-75
2021/12/10 03:41:40;;;;;;;23.37;11.57;;;-1.50;99.90;-2.80;99011;;;;575041;244;24064;-75
2021/12/10 03:44:11;;;;;;;27.53;13.43;;;-1.50;99.90;-2.70;99011;;;;577776;245;24077;-74
2021/12/10 03:46:35;;;;;;;22.20;11.67;;;-1.50;99.90;-2.80;98994;;;;574640;245;24081;-75
2021/12/10 03:49:04;;;;;;;29.90;13.33;;;-1.60;99.90;-2.80;98994;;;;574765;245;24057;-75
2021/12/10 03:51:33;;;;;;;19.87;11.50;;;-1.50;99.90;-2.80;98991;;;;564609;249;24101;-75
2021/12/10 03:54:04;;;;;;;20.90;12.43;;;-1.50;99.90;-2.70;98980;;;;567573;249;24099;-74
2021/12/10 03:56:29;;;;;;;20.87;9.83;;;-1.50;99.90;-2.70;98978;;;;564483;249;24099;-74
2021/12/10 03:59:00;;;;;;;18.23;10.00;;;-1.50;99.90;-2.70;98983;;;;563562;249;24141;-76
2021/12/10 04:01:25;;;;;;;23.37;12.07;;;-1.50;99.90;-2.70;98968;;;;563372;249;24176;-75
2021/12/10 04:03:52;;;;;;;12.50;6.62;;;-1.50;99.90;-2.70;98998;;;;559523;248;35257;-75
2021/12/10 04:06:20;;;;;;;4.03;3.53;;;-1.50;99.90;-2.70;98985;;;;574712;246;24041;-75
2021/12/10 04:08:51;;;;;;;2.10;1.93;;;-1.40;99.90;-2.70;98989;;;;575350;244;24163;-76
2021/12/10 04:11:20;;;;;;;1.93;1.83;;;-1.40;99.90;-2.60;98985;;;;563908;249;24112;-74
2021/12/10 04:13:45;;;;;;;8.13;3.80;;;-1.40;99.90;-2.60;98976;;;;575023;249;24104;-75
2021/12/10 04:16:16;;;;;;;9.07;3.17;;;-1.40;99.90;-2.60;98979;;;;563034;249;24148;-75
2021/12/10 04:18:41;;;;;;;2.43;2.23;;;-1.40;99.90;-2.60;98978;;;;567791;249;24105;-76
2021/12/10 04:21:09;;;;;;;13.00;7.07;;;-1.40;99.90;-2.60;98973;;;;566948;249;24139;-74
2021/12/10 04:23:37;;;;;;;18.03;8.27;;;-1.40;99.90;-2.60;98972;;;;575894;249;25172;-74
2021/12/10 04:26:05;;;;;;;13.83;7.20;;;-1.40;99.90;-2.60;98971;;;;566766;249;24102;-74
2021/12/10 04:28:36;;;;;;;24.37;10.93;;;-1.40;99.90;-2.60;98978;;;;566856;249;24114;-74
2021/12/10 04:31:01;;;;;;;19.27;8.83;;;-1.40;99.90;-2.60;98979;;;;575159;249;24128;-74
2021/12/10 04:33:29;;;;;;;22.10;11.00;;;-1.40;99.90;-2.60;98971;;;;575488;249;24111;-74
2021/12/10 04:35:57;;;;;;;24.73;11.17;;;-1.40;99.90;-2.60;98968;;;;566850;249;24122;-74
2021/12/10 04:38:25;;;;;;;18.63;10.00;;;-1.40;99.90;-2.60;98970;;;;567856;249;24095;-74
2021/12/10 04:40:55;;;;;;;15.80;7.53;;;-1.40;99.90;-2.60;98970;;;;567927;249;24101;-75
2021/12/10 04:43:23;;;;;;;11.02;5.20;;;-1.40;99.90;-2.60;98968;;;;558592;249;35335;-75
2021/12/10 04:45:48;;;;;;;8.90;3.40;;;-1.40;99.90;-2.60;98957;;;;575940;249;24129;-76
2021/12/10 04:48:16;;;;;;;1.47;1.47;;;-1.30;99.90;-2.60;98964;;;;567319;249;24151;-76
2021/12/10 04:50:45;;;;;;;2.47;1.70;;;-1.30;99.90;-2.50;98964;;;;567492;249;24137;-75
2021/12/10 04:53:13;;;;;;;7.73;2.17;;;-1.30;99.90;-2.50;98963;;;;568249;249;24129;-77
2021/12/10 04:55:41;;;;;;;3.43;2.77;;;-1.30;99.90;-2.50;98961;;;;567602;249;24137;-76
2021/12/10 04:58:09;;;;;;;6.07;2.37;;;-1.30;99.90;-2.50;98972;;;;575743;249;24136;-75
2021/12/10 05:00:37;;;;;;;2.53;1.77;;;-1.30;99.90;-2.50;98965;;;;567036;249;24129;-76
2021/12/10 05:03:08;;;;;;;1.10;1.10;;;-1.30;99.90;-2.50;98970;;;;564289;247;24087;-77
2021/12/10 05:05:36;;;;;;;3.53;2.57;;;-1.30;99.90;-2.50;98971;;;;573687;250;24107;-77
2021/12/10 05:08:01;;;;;;;3.03;2.50;;;-1.30;99.90;-2.50;98968;;;;566318;250;24119;-77
2021/12/10 05:10:29;;;;;;;16.77;8.17;;;-1.30;99.90;-2.50;98963;;;;571263;246;24135;-75
2021/12/10 05:13:00;;;;;;;15.17;7.03;;;-1.30;99.90;-2.50;98963;;;;576118;246;24165;-78
2021/12/10 05:15:25;;;;;;;15.77;8.03;;;-1.30;99.90;-2.50;98959;;;;570864;246;24121;-77
2021/12/10 05:17:53;;;;;;;17.47;9.20;;;-1.30;99.90;-2.50;98955;;;;573026;246;24100;-76
2021/12/10 05:20:22;;;;;;;18.63;8.60;;;-1.40;99.90;-2.50;98954;;;;582000;243;24069;-76
2021/12/10 05:22:50;;;;;;;13.00;7.23;;;-1.30;99.90;-2.50;98945;;;;581242;246;24145;-76
2021/12/10 05:25:18;;;;;;;18.30;9.63;;;-1.30;99.90;-2.50;98939;;;;575912;246;24149;-74
2021/12/10 05:27:46;;;;;;;17.60;8.77;;;-1.30;99.90;-2.50;98941;;;;573086;246;24206;-77
2021/12/10 05:30:14;;;;;;;11.20;5.67;;;-1.30;99.90;-2.50;98939;;;;591201;243;24043;-76
2021/12/10 05:32:43;;;;;;;19.53;9.33;;;-1.30;99.90;-2.50;98938;;;;570867;246;24141;-77
2021/12/10 05:35:12;;;;;;;20.90;10.10;;;-1.30;99.90;-2.50;98932;;;;572418;247;24063;-78
2021/12/10 05:37:39;;;;;;;19.30;10.07;;;-1.30;99.90;-2.50;98935;;;;560589;250;24091;-78
2021/12/10 05:40:07;;;;;;;15.43;8.77;;;-1.30;99.90;-2.50;98932;;;;562105;250;24084;-77
2021/12/10 05:42:35;;;;;;;20.03;9.80;;;-1.40;99.90;-2.60;98921;;;;571121;251;25171;-78
2021/12/10 05:45:02;;;;;;;17.27;10.30;;;-1.30;99.90;-2.50;98924;;;;573324;250;24181;-77
2021/12/10 05:47:30;;;;;;;23.80;10.50;;;-1.30;99.90;-2.50;98924;;;;564799;250;24116;-77
2021/12/10 05:49:58;;;;;;;18.77;9.63;;;-1.40;99.90;-2.50;98919;;;;565958;250;24121;-78
2021/12/10 05:52:26;;;;;;;18.60;9.23;;;-1.30;99.90;-2.50;98917;;;;565884;250;24099;-77
2021/12/10 05:54:54;;;;;;;16.30;8.63;;;-1.30;99.90;-2.50;98916;;;;565647;250;25227;-77
2021/12/10 05:57:23;;;;;;;21.83;11.10;;;-1.30;99.90;-2.50;98913;;;;565260;250;24142;-77
2021/12/10 05:59:51;;;;;;;16.50;8.83;;;-1.30;99.90;-2.50;98910;;;;564772;250;24086;-75
2021/12/10 06:02:20;;;;;;;16.10;8.93;;;-1.30;99.90;-2.50;98914;;;;565007;249;24135;-76
2021/12/10 06:04:48;;;;;;;20.70;9.77;;;-1.30;99.90;-2.50;98902;;;;564797;250;24141;-76
2021/12/10 06:07:16;;;;;;;18.07;10.20;;;-1.30;99.90;-2.50;98905;;;;565806;250;24099;-76
2021/12/10 06:09:44;;;;;;;19.73;10.63;;;-1.30;99.90;-2.50;98911;;;;564749;250;24098;-75
2021/12/10 06:12:12;;;;;;;12.17;7.17;;;-1.30;99.90;-2.50;98905;;;;564128;250;24181;-75
2021/12/10 06:14:40;;;;;;;24.37;12.17;;;-1.30;99.90;-2.50;98914;;;;564738;250;24155;-75
2021/12/10 06:17:08;;;;;;;12.47;7.70;;;-1.30;99.90;-2.50;98921;;;;564704;250;24107;-77
2021/12/10 06:19:36;;;;;;;15.80;8.83;;;-1.30;99.90;-2.50;98921;;;;564811;250;24064;-77
2021/12/10 06:22:04;;;;;;;21.83;10.27;;;-1.30;99.90;-2.50;98927;;;;564710;249;24094;-78
2021/12/10 06:24:31;;;;;;;16.90;8.73;;;-1.30;99.90;-2.50;98919;;;;564632;250;24115;-74
2021/12/10 06:26:59;;;;;;;13.47;8.30;;;-1.30;99.90;-2.50;98917;;;;564476;250;24118;-75
2021/12/10 06:29:31;;;;;;;12.37;7.00;;;-1.30;99.90;-2.50;98912;;;;564436;250;24078;-75
2021/12/10 06:31:55;;;;;;;17.97;8.57;;;-1.30;99.90;-2.50;98916;;;;561745;250;24097;-75
2021/12/10 06:34:23;;;;;;;13.33;7.07;;;-1.30;99.90;-2.50;98915;;;;573026;250;24156;-75
2021/12/10 06:36:51;;;;;;;11.10;6.73;;;-1.30;99.90;-2.50;98920;;;;564803;250;24115;-73
2021/12/10 06:39:20;;;;;;;20.73;9.97;;;-1.30;99.90;-2.50;98904;;;;564497;250;24128;-74
2021/12/10 06:41:51;;;;;;;18.87;8.97;;;-1.30;99.90;-2.40;98910;;;;564289;250;24088;-74
2021/12/10 06:44:19;;;;;;;9.00;5.27;;;-1.30;99.90;-2.40;98895;;;;564580;250;24156;-76
2021/12/10 06:46:48;;;;;;;6.07;4.20;;;-1.30;99.90;-2.40;98897;;;;565762;251;46224;-76
2021/12/10 06:49:16;;;;;;;9.30;5.77;;;-1.30;99.90;-2.40;98885;;;;572892;250;24130;-76
2021/12/10 06:51:44;;;;;;;7.93;2.93;;;-1.20;99.90;-2.40;98889;;;;572952;250;24134;-74
2021/12/10 06:54:12;;;;;;;2.90;1.67;;;-1.20;99.90;-2.40;98889;;;;566501;250;24169;-76
2021/12/10 06:56:40;;;;;;;1.20;1.20;;;-1.20;99.90;-2.40;98892;;;;566597;250;24132;-75
2021/12/10 06:59:08;;;;;;;2.10;2.00;;;-1.20;99.90;-2.40;98879;;;;564793;250;24123;-75
2021/12/10 07:01:36;;;;;;;1.60;1.40;;;-1.20;99.90;-2.30;98883;;;;561043;250;24074;-74
2021/12/10 07:04:04;;;;;;;3.67;2.07;;;-1.20;99.90;-2.30;98888;;;;561097;250;24134;-75
2021/12/10 07:06:33;;;;;;;3.87;2.30;;;-1.10;99.90;-2.40;98882;;;;574177;250;24149;-75
2021/12/10 07:09:01;;;;;;;4.73;2.93;;;-1.10;99.90;-2.40;98883;;;;565172;250;24111;-75
2021/12/10 07:11:29;;;;;;;0.33;0.33;;;-1.20;99.90;-2.30;98887;;;;564824;249;24132;-75
2021/12/10 07:13:57;;;;;;;2.17;1.60;;;-1.20;99.90;-2.30;98879;;;;566117;252;24115;-75
2021/12/10 07:16:26;;;;;;;0.20;0.20;;;-1.10;99.90;-2.30;98879;;;;555587;252;24096;-75
2021/12/10 07:18:54;;;;;;;2.10;1.70;;;-1.20;99.90;-2.30;98882;;;;560003;252;24158;-75
2021/12/10 07:21:31;;;;;;;7.43;3.97;;;-1.20;99.90;-2.30;98879;;;;612046;228;34567;-74
2021/12/10 07:23:57;;;;;;;3.07;2.30;;;-1.10;99.90;-2.30;98875;;;;595693;237;24041;-74
2021/12/10 07:26:27;;;;;;;1.03;0.90;;;-1.10;99.90;-2.20;98873;;;;595861;233;24088;-76
2021/12/10 07:28:53;;;;;;;0.93;0.77;;;-1.10;99.90;-2.20;98866;;;;584685;241;24189;-78
2021/12/10 07:31:21;;;;;;;2.10;1.93;;;-1.00;99.90;-2.20;98874;;;;584398;241;24107;-76
2021/12/10 07:33:50;;;;;;;1.13;1.03;;;-1.00;99.90;-2.20;98859;;;;582234;241;25152;-78
2021/12/10 07:36:18;;;;;;;2.43;0.77;;;-1.00;99.90;-2.20;98861;;;;584331;241;24096;-77
2021/12/10 07:38:45;;;;;;;0.73;0.73;;;-1.00;99.90;-2.20;98856;;;;584192;241;24102;-76
2021/12/10 07:41:13;;;;;;;1.37;1.37;;;-1.00;99.90;-2.10;98854;;;;584075;241;24106;-76
2021/12/10 07:43:41;;;;;;;0.33;0.30;;;-1.00;99.90;-2.10;98858;;;;593221;238;24097;-76
2021/12/10 07:46:12;;;;;;;2.07;1.73;;;-0.90;99.90;-2.10;98855;;;;584158;241;24053;-77
2021/12/10 07:48:41;;;;;;;10.63;5.65;;;-0.90;99.90;-2.10;98849;;;;587436;238;35341;-76
2021/12/10 07:51:06;;;;;;;3.40;2.47;;;-0.90;99.90;-2.10;98847;;;;583584;241;24081;-75
2021/12/10 07:53:34;;;;;;;1.13;1.07;;;-0.90;99.90;-2.10;98856;;;;583647;241;24085;-76
2021/12/10 07:56:02;;;;;;;1.30;1.27;;;-0.90;99.90;-2.10;98853;;;;581814;241;24102;-77
2021/12/10 07:58:30;;;;;;;4.37;1.80;;;-0.90;99.90;-2.00;98854;;;;583489;241;24075;-76
2021/12/10 08:00:58;;;;;;;4.67;2.93;;;-0.90;99.90;-2.00;98851;;;;592290;241;24127;-76
2021/12/10 08:03:26;;;;;;;2.30;1.10;;;-0.80;99.90;-2.00;98850;;;;583526;241;24096;-77
2021/12/10 08:05:54;;;;;;;1.83;1.70;;;-0.80;99.90;-2.00;98857;;;;581427;241;24123;-75
2021/12/10 08:08:22;;;;;;;0.13;0.13;;;-0.80;99.90;-2.00;98864;;;;590381;238;24077;-76
2021/12/10 08:10:50;;;;;;;6.37;2.50;;;-0.80;99.90;-2.00;98862;;;;592626;238;24050;-77
2021/12/10 08:13:21;;;;;;;1.43;0.63;;;-0.80;99.90;-2.00;98875;;;;592733;238;24112;-76
2021/12/10 08:15:46;;;;;;;4.67;1.63;;;-0.90;99.90;-2.00;98852;;;;592138;238;24099;-76
2021/12/10 08:18:14;;;;;;;1.47;1.20;;;-0.90;99.90;-2.00;98860;;;;592005;238;24079;-75
2021/12/10 08:20:42;;;;;;;0.93;0.93;;;-0.90;99.90;-2.00;98855;;;;592254;238;24157;-75
2021/12/10 08:23:14;;;;;;;1.13;1.13;;;-0.90;99.90;-2.00;98847;;;;589649;238;24042;-75
2021/12/10 08:25:38;;;;;;;1.53;1.43;;;-0.80;99.90;-2.00;98851;;;;591588;238;24047;-77
2021/12/10 08:28:06;;;;;;;0.30;0.20;;;-0.80;99.90;-2.00;98846;;;;592190;238;24027;-77
2021/12/10 08:30:34;;;;;;;1.07;0.63;;;-0.80;99.90;-1.90;98832;;;;591987;236;24110;-76
2021/12/10 08:33:02;;;;;;;1.97;1.87;;;-0.80;99.90;-1.90;98843;;;;593632;238;24067;-76
2021/12/10 08:35:30;;;;;;;3.10;2.80;;;-0.80;99.90;-1.90;98841;;;;593192;238;24028;-75
2021/12/10 08:37:58;;;;;;;1.43;1.33;;;-0.70;99.90;-1.90;98841;;;;602327;238;24030;-76
2021/12/10 08:40:26;;;;;;;1.23;1.13;;;-0.70;99.90;-1.90;98838;;;;602246;238;24069;-77
2021/12/10 08:42:54;;;;;;;1.43;1.43;;;-0.70;99.90;-1.90;98835;;;;601783;238;24074;-76
2021/12/10 08:45:21;;;;;;;0.50;0.50;;;-0.70;99.90;-1.80;98829;;;;602160;238;24039;-78
2021/12/10 08:47:52;;;;;;;0.57;0.57;;;-0.70;99.90;-1.80;98828;;;;592589;238;24036;-77
2021/12/10 08:50:22;;;;;;;2.07;1.93;;;-0.60;99.90;-1.80;98831;;;;592434;238;24046;-76
2021/12/10 08:52:47;;;;;;;0.67;0.67;;;-0.60;99.90;-1.80;98828;;;;592021;238;24040;-76
2021/12/10 08:55:17;;;;;;;2.03;1.93;;;-0.60;99.90;-1.70;98828;;;;592250;238;24015;-79
2021/12/10 08:57:42;;;;;;;1.93;1.83;;;-0.50;99.90;-1.70;98826;;;;592153;238;24053;-77
2021/12/10 09:00:14;;;;;;;4.68;3.22;;;-0.50;99.90;-1.70;98820;;;;587581;238;34909;-77
2021/12/10 09:02:38;;;;;;;1.23;1.17;;;-0.50;99.90;-1.60;98829;;;;599465;238;24028;-76
2021/12/10 09:05:09;;;;;;;3.40;2.33;;;-0.40;99.90;-1.60;98831;;;;592701;238;24036;-76
2021/12/10 09:07:38;;;;;;;0.77;0.77;;;-0.40;99.90;-1.60;98846;;;;601710;238;24028;-76
2021/12/10 09:10:07;;;;;;;2.70;2.03;;;-0.40;99.90;-1.50;98840;;;;592009;238;24042;-76
2021/12/10 09:12:33;;;;;;;1.97;1.70;;;-0.40;99.90;-1.50;98835;;;;591962;238;24042;-77
2021/12/10 09:15:05;;;;;;;2.47;2.27;;;-0.30;99.90;-1.40;98834;;;;589837;238;24075;-77
2021/12/10 09:17:30;;;;;;;1.13;0.70;;;-0.20;99.90;-1.30;98841;;;;592005;238;24039;-77
2021/12/10 09:19:57;;;;;;;1.20;1.17;;;-0.10;99.90;-1.30;98835;;;;595838;237;24069;-77
2021/12/10 09:22:25;;;;;;;1.43;1.17;;;-0.10;99.90;-1.30;98831;;;;595137;237;24081;-77
2021/12/10 09:24:54;;;;;;;1.30;1.20;;;-0.10;99.90;-1.40;98836;;;;595184;237;25110;-77
2021/12/10 09:27:21;;;;;;;1.40;1.30;;;-0.20;99.90;-1.40;98836;;;;595103;237;24078;-77
2021/12/10 09:29:49;;;;;;;0.77;0.57;;;-0.20;99.90;-1.40;98829;;;;595175;237;24109;-77
2021/12/10 09:32:16;;;;;;;1.47;1.37;;;-0.20;99.90;-1.40;98828;;;;593833;237;24102;-77
2021/12/10 09:34:44;;;;;;;2.90;1.90;;;-0.20;99.90;-1.40;98828;;;;594875;234;24027;-78
2021/12/10 09:37:12;;;;;;;1.17;0.80;;;-0.30;99.90;-1.40;98823;;;;592399;238;24043;-78
2021/12/10 09:39:40;;;;;;;3.53;2.33;;;-0.20;99.90;-1.40;98813;;;;592486;238;24024;-78
2021/12/10 09:42:08;;;;;;;3.47;1.87;;;-0.20;99.90;-1.40;98818;;;;590187;236;24016;-78
2021/12/10 09:44:36;;;;;;;1.90;1.47;;;-0.20;99.90;-1.40;98824;;;;593993;238;24044;-77
2021/12/10 09:47:04;;;;;;;4.30;2.00;;;-0.20;99.90;-1.30;98816;;;;593441;238;24085;-77
2021/12/10 09:49:33;;;;;;;0.43;0.40;;;-0.10;99.90;-1.20;98810;;;;593208;238;25067;-78
2021/12/10 09:52:00;;;;;;;1.10;1.07;;;-0.10;99.90;-1.20;98802;;;;593203;238;24036;-77
2021/12/10 09:54:28;;;;;;;0.73;0.73;;;0.00;99.90;-1.10;98792;;;;592782;238;24110;-76
2021/12/10 09:57:02;;;;;;;1.40;1.30;;;0.10;99.90;-1.00;98792;;;;593001;238;24020;-77
2021/12/10 09:59:29;;;;;;;1.47;1.07;;;0.20;99.90;-1.00;98809;;;;600360;238;24025;-77
2021/12/10 10:02:01;;;;;;;0.73;0.73;;;0.20;99.90;-1.00;98807;;;;592532;238;24074;-77
2021/12/10 10:04:28;;;;;;;0.20;0.20;;;0.20;99.90;-1.00;98805;;;;591878;238;24063;-78
2021/12/10 10:06:59;;;;;;;0.40;0.40;;;0.20;99.90;-1.00;98810;;;;592170;238;24058;-78
2021/12/10 10:09:30;;;;;;;0.87;0.87;;;0.20;99.90;-0.90;98809;;;;592160;238;24077;-77
2021/12/10 10:12:07;;;;;;;0.73;0.73;;;0.30;99.90;-1.00;98802;;;;591862;238;24047;-78
2021/12/10 10:14:35;;;;;;;0.83;0.83;;;0.30;99.90;-1.00;98795;;;;588431;238;24033;-77
2021/12/10 10:17:03;;;;;;;1.90;1.80;;;0.30;99.90;-1.00;98799;;;;592433;238;24072;-78
2021/12/10 10:19:34;;;;;;;1.23;1.23;;;0.20;99.90;-1.00;98798;;;;592472;238;24102;-77
2021/12/10 10:21:59;;;;;;;0.93;0.90;;;0.20;99.90;-1.00;98788;;;;601351;238;24089;-76
2021/12/10 10:24:26;;;;;;;2.87;1.63;;;0.20;99.90;-0.90;98804;;;;592391;238;24067;-79
2021/12/10 10:26:56;;;;;;;1.40;1.27;;;0.30;99.90;-0.80;98812;;;;592299;238;24077;-78
2021/12/10 10:29:22;;;;;;;1.73;0.93;;;0.40;99.90;-0.70;98802;;;;592342;238;24096;-76
2021/12/10 10:31:51;;;;;;;0.95;0.88;;;0.50;99.90;-0.60;98785;;;;587049;238;34840;-77
2021/12/10 10:34:22;;;;;;;1.10;0.97;;;0.60;99.90;-0.50;98787;;;;592307;238;24041;-76
2021/12/10 10:36:46;;;;;;;1.53;1.47;;;0.70;99.90;-0.60;98786;;;;591954;238;24033;-78
2021/12/10 10:39:14;;;;;;;0.77;0.77;;;0.70;99.90;-0.70;98801;;;;592365;238;25085;-77
2021/12/10 10:41:42;;;;;;;2.30;1.70;;;0.60;99.90;-0.70;98801;;;;576669;243;24051;-78
2021/12/10 10:44:10;;;;;;;2.87;2.00;;;0.60;99.90;-0.80;98787;;;;579992;243;24105;-78
2021/12/10 10:46:38;;;;;;;1.33;1.23;;;0.50;99.90;-0.80;98788;;;;569141;248;24159;-78
2021/12/10 10:49:05;;;;;;;1.53;0.73;;;0.40;99.90;-0.90;98800;;;;580017;243;24063;-78
2021/12/10 10:51:37;;;;;;;2.17;1.40;;;0.40;99.90;-0.90;98801;;;;565190;248;24079;-78
2021/12/10 10:54:04;;;;;;;2.50;1.67;;;0.40;99.90;-0.90;98801;;;;580206;241;24078;-77
2021/12/10 10:56:41;;;;;;;21.10;3.37;;;0.40;99.90;-0.90;98810;;;;570332;248;24106;-78
2021/12/10 10:59:20;;;;;;;0.37;0.27;;;0.40;99.90;-0.90;98798;;;;580967;243;24081;-79
2021/12/10 11:01:53;;;;;;;5.30;2.10;;;0.30;99.90;-0.90;98798;;;;569420;248;24125;-78
2021/12/10 11:04:18;;;;;;;0.87;0.87;;;0.40;99.90;-0.80;98794;;;;569405;248;24089;-78
2021/12/10 11:06:43;;;;;;;1.57;1.47;;;0.40;99.90;-0.80;98796;;;;578836;239;24088;-78
2021/12/10 11:09:17;;;;;;;2.03;1.40;;;0.40;99.90;-0.80;98797;;;;569800;248;24101;-78
2021/12/10 11:12:00;;;;;;;0.30;0.30;;;0.40;99.90;-0.80;98783;;;;580736;243;24041;-77
2021/12/10 11:14:43;;;;;;;1.67;1.47;;;0.50;99.90;-0.80;98793;;;;569178;248;24087;-77
2021/12/10 11:17:16;;;;;;;2.13;1.93;;;0.50;99.90;-0.90;98801;;;;576335;243;24073;-80
2021/12/10 11:20:02;;;;;;;1.00;0.97;;;0.40;99.90;-0.90;98795;;;;565728;248;24093;-78
2021/12/10 11:22:33;;;;;;;0.37;0.37;;;0.30;99.90;-0.90;98784;;;;577812;243;24077;-78
2021/12/10 11:24:58;;;;;;;1.37;1.27;;;0.30;99.90;-1.00;98785;;;;570320;248;24063;-77
2021/12/10 11:27:29;;;;;;;2.67;2.10;;;0.30;99.90;-0.90;98791;;;;579791;244;24068;-76